Morforte De Lemos, Spain
Current Conditions -  °F | °C
As of 2:00 AM on Saturday 20 Dec 2014 (Local Time) from LEST Reporting Station
Broken Clouds Broken Clouds  
Wind Chill: 46°   Ceiling: 800
Heat Index: 46°   Visibility: 5mi
Dew Point: 45°   Wind: 2mph
Humidity: 93%   Direction: NA
Pressure: 30.56"   Gusts: NA
Location:  42.52°N, 7.5°W
Report Text: LEST 200100Z VRB02KT 8000 BKN008 08/07 Q1035 TEMPO 3000 RA BKN006
Loading
Personal Weather Stations






























Interactive Weather Map New forecast layout! Learn more

10-Day Weather Forecast

Advertisements
Track Severe Weather on mobile